createdAt,value
2023-05-18T00:00:00.426Z,47.78
2023-05-18T00:05:02.215Z,47.66
2023-05-18T00:10:04.053Z,47.91
2023-05-18T00:15:06.304Z,48.13
2023-05-18T00:20:09.234Z,47.99
2023-05-18T00:25:10.695Z,48.14
2023-05-18T00:30:12.868Z,48.19
2023-05-18T00:35:14.387Z,48.24
2023-05-18T00:40:16.530Z,48.82
2023-05-18T00:45:19.133Z,48.75
2023-05-18T00:50:20.602Z,48.83
2023-05-18T00:55:22.293Z,48.70
2023-05-18T01:00:24.337Z,49.01
2023-05-18T01:05:25.940Z,49.17
2023-05-18T01:10:27.467Z,49.16
2023-05-18T01:15:33.959Z,49.24
2023-05-18T01:20:57.567Z,49.38
2023-05-18T01:25:58.938Z,49.21
2023-05-18T01:31:01.128Z,49.67
2023-05-18T01:36:02.676Z,49.88
2023-05-18T01:41:14.063Z,50.27
2023-05-18T01:46:43.970Z,50.33
2023-05-18T01:51:46.972Z,50.52
2023-05-18T01:56:50.733Z,50.46
2023-05-18T02:01:59.534Z,50.59
2023-05-18T02:07:01.525Z,50.75
2023-05-18T02:12:03.130Z,51.10
2023-05-18T02:17:07.006Z,51.33
2023-05-18T02:22:08.580Z,51.15
2023-05-18T02:27:09.971Z,51.30
2023-05-18T02:32:11.479Z,51.26
2023-05-18T02:37:14.027Z,51.59
2023-05-18T02:42:15.432Z,51.90
2023-05-18T02:47:17.009Z,51.99
2023-05-18T02:52:18.486Z,51.95
2023-05-18T02:57:20.350Z,52.27
2023-05-18T03:02:23.733Z,52.62
2023-05-18T03:07:27.462Z,52.47
2023-05-18T03:12:28.854Z,52.93
2023-05-18T03:17:30.335Z,53.26
2023-05-18T03:22:31.740Z,53.44
2023-05-18T03:27:33.847Z,53.95
2023-05-18T03:32:37.021Z,54.30
2023-05-18T03:37:38.790Z,54.53
2023-05-18T03:42:41.103Z,54.21
2023-05-18T03:47:42.559Z,54.40
2023-05-18T03:52:44.510Z,54.88
2023-05-18T03:57:45.924Z,54.92
2023-05-18T04:02:47.596Z,54.86
2023-05-18T04:07:50.013Z,55.10
2023-05-18T04:12:51.702Z,54.82
2023-05-18T04:17:53.746Z,55.40
2023-05-18T04:22:57.337Z,54.87
2023-05-18T04:27:58.762Z,55.15
2023-05-18T04:33:00.497Z,55.21
2023-05-18T04:38:02.601Z,55.18
2023-05-18T04:43:05.587Z,55.50
2023-05-18T04:48:07.744Z,55.32
2023-05-18T04:53:12.166Z,55.52
2023-05-18T04:58:13.683Z,55.22
2023-05-18T05:03:15.163Z,55.36
2023-05-18T05:08:16.653Z,55.38
2023-05-18T05:13:18.076Z,55.45
2023-05-18T05:18:19.890Z,55.61
2023-05-18T05:23:21.354Z,55.39
2023-05-18T05:28:22.884Z,55.28
2023-05-18T05:33:24.400Z,54.78
2023-05-18T05:38:26.207Z,54.90
2023-05-18T05:43:27.682Z,54.74
2023-05-18T05:48:29.128Z,54.57
2023-05-18T05:53:30.600Z,53.74
2023-05-18T05:58:31.989Z,53.87
2023-05-18T06:03:35.815Z,53.13
2023-05-18T06:08:37.673Z,53.05
2023-05-18T06:13:39.105Z,52.61
2023-05-18T06:18:40.561Z,52.44
2023-05-18T06:23:42.976Z,51.45
2023-05-18T06:28:44.400Z,51.48
2023-05-18T06:33:45.839Z,51.18
2023-05-18T06:38:47.272Z,50.88
2023-05-18T06:43:48.883Z,50.55
2023-05-18T06:48:51.382Z,50.06
2023-05-18T06:53:52.852Z,50.16
2023-05-18T06:58:54.254Z,49.80
2023-05-18T07:03:56.786Z,49.99
2023-05-18T07:08:58.398Z,49.41
2023-05-18T07:13:59.967Z,49.44
2023-05-18T07:19:01.570Z,49.29
2023-05-18T07:24:03.143Z,49.07
2023-05-18T07:29:04.587Z,48.99
2023-05-18T07:34:06.110Z,49.15
2023-05-18T07:39:08.140Z,48.33
2023-05-18T07:44:09.495Z,48.54
2023-05-18T07:49:11.010Z,48.09
2023-05-18T07:54:12.761Z,47.63
2023-05-18T07:59:14.280Z,47.67
2023-05-18T08:04:15.935Z,47.02
2023-05-18T08:09:22.076Z,46.63
2023-05-18T08:14:23.650Z,46.21
2023-05-18T08:19:25.870Z,45.92
2023-05-18T08:24:27.528Z,45.61
2023-05-18T08:29:28.974Z,45.36
2023-05-18T08:34:30.383Z,45.05
2023-05-18T08:39:32.346Z,44.62
2023-05-18T08:44:41.009Z,44.51
2023-05-18T08:49:43.383Z,44.21
2023-05-18T08:54:46.028Z,43.87
2023-05-18T08:59:49.345Z,43.36
2023-05-18T09:04:51.350Z,43.37
2023-05-18T09:09:55.085Z,43.09
2023-05-18T09:14:57.013Z,42.34
2023-05-18T09:19:58.439Z,42.25
2023-05-18T09:24:59.935Z,41.98
2023-05-18T09:30:01.478Z,41.42
2023-05-18T09:35:06.802Z,41.46
2023-05-18T09:40:08.731Z,41.34
2023-05-18T09:45:25.546Z,40.90
2023-05-18T09:50:27.348Z,40.32
2023-05-18T09:55:29.085Z,40.00
2023-05-18T10:00:30.792Z,39.25
2023-05-18T10:05:36.062Z,39.05
2023-05-18T10:10:39.506Z,38.54
2023-05-18T10:15:54.125Z,38.01
2023-05-18T10:20:59.999Z,37.53
2023-05-18T10:26:05.465Z,37.01
2023-05-18T10:31:08.301Z,36.97
2023-05-18T10:36:10.963Z,37.06
2023-05-18T10:41:13.376Z,36.48
2023-05-18T10:46:16.694Z,35.63
2023-05-18T10:51:20.148Z,35.20
2023-05-18T10:56:23.423Z,34.97
2023-05-18T11:01:25.025Z,34.18
2023-05-18T11:06:27.286Z,34.21
2023-05-18T11:11:30.178Z,33.87
2023-05-18T11:16:36.631Z,32.83
2023-05-18T11:21:41.359Z,32.74
2023-05-18T11:26:44.940Z,32.33
2023-05-18T11:31:47.895Z,32.04
2023-05-18T11:36:56.406Z,32.15
2023-05-18T11:42:02.259Z,31.52
2023-05-18T11:47:05.873Z,31.93
2023-05-18T11:52:16.757Z,31.22
2023-05-18T11:57:19.973Z,30.69
2023-05-18T12:02:26.820Z,30.17
2023-05-18T12:07:30.396Z,29.73
2023-05-18T12:12:33.992Z,28.62
2023-05-18T12:17:46.586Z,27.90
2023-05-18T12:22:53.698Z,27.41
2023-05-18T12:27:56.925Z,27.22
2023-05-18T12:33:01.227Z,27.05
2023-05-18T12:38:03.116Z,26.79
2023-05-18T12:43:04.741Z,26.23
2023-05-18T12:48:11.966Z,26.45
2023-05-18T12:53:13.544Z,25.51
2023-05-18T12:58:18.100Z,25.56
2023-05-18T13:03:22.297Z,25.57
2023-05-18T13:08:24.376Z,25.23
2023-05-18T13:13:25.836Z,24.86
2023-05-18T13:18:28.416Z,24.78
2023-05-18T13:23:30.119Z,23.67
2023-05-18T13:28:31.597Z,23.70
2023-05-18T13:33:33.114Z,23.76
2023-05-18T13:38:37.094Z,23.68
2023-05-18T13:43:38.669Z,23.13
2023-05-18T13:48:40.160Z,23.00
2023-05-18T13:53:41.661Z,22.90
2023-05-18T13:58:44.628Z,22.38
2023-05-18T14:03:46.052Z,22.00
2023-05-18T14:08:47.499Z,21.70
2023-05-18T14:13:50.320Z,21.19
2023-05-18T14:18:51.789Z,20.69
2023-05-18T14:23:53.239Z,20.83
2023-05-18T14:28:54.644Z,21.04
2023-05-18T14:33:56.267Z,20.80
2023-05-18T14:38:57.789Z,20.31
2023-05-18T14:43:59.227Z,19.32
2023-05-18T14:49:00.702Z,18.86
2023-05-18T14:54:02.726Z,18.52
2023-05-18T14:59:04.142Z,18.93
2023-05-18T15:04:05.751Z,19.00
2023-05-18T15:09:08.255Z,19.55
2023-05-18T15:14:09.925Z,19.71
2023-05-18T15:19:11.338Z,19.76
2023-05-18T15:24:12.807Z,20.06
2023-05-18T15:29:14.233Z,19.75
2023-05-18T15:34:15.736Z,20.24
2023-05-18T15:39:17.140Z,20.57
2023-05-18T15:44:18.646Z,20.47
2023-05-18T15:49:21.663Z,20.54
2023-05-18T15:54:23.066Z,21.10
2023-05-18T15:59:24.457Z,21.35
2023-05-18T16:04:25.877Z,22.27
2023-05-18T16:09:27.258Z,22.57
2023-05-18T16:14:28.701Z,22.35
2023-05-18T16:19:30.630Z,22.35
2023-05-18T16:24:32.117Z,22.90
2023-05-18T16:29:33.567Z,23.13
2023-05-18T16:34:35.004Z,22.66
2023-05-18T16:39:36.876Z,22.77
2023-05-18T16:44:38.339Z,22.19
2023-05-18T16:49:39.992Z,22.58
2023-05-18T16:54:41.658Z,22.81
2023-05-18T16:59:43.062Z,23.42
2023-05-18T17:04:49.667Z,23.97
2023-05-18T17:09:51.218Z,24.31
2023-05-18T17:14:52.649Z,24.69
2023-05-18T17:19:54.280Z,24.92
2023-05-18T17:24:55.934Z,24.91
2023-05-18T17:29:57.749Z,25.30
2023-05-18T17:34:59.199Z,25.55
2023-05-18T17:40:00.881Z,25.82
2023-05-18T17:45:02.427Z,25.45
2023-05-18T17:50:04.349Z,25.60
2023-05-18T17:55:06.310Z,25.87
2023-05-18T18:00:08.450Z,26.01
2023-05-18T18:05:10.112Z,26.51
2023-05-18T18:10:11.808Z,27.45
2023-05-18T18:15:13.256Z,28.15
2023-05-18T18:20:14.978Z,29.30
2023-05-18T18:25:16.553Z,30.06
2023-05-18T18:30:18.006Z,30.61
2023-05-18T18:35:19.456Z,31.35
2023-05-18T18:40:20.990Z,32.27
2023-05-18T18:45:22.493Z,32.97
2023-05-18T18:50:24.811Z,33.69
2023-05-18T18:55:26.577Z,34.13
2023-05-18T19:00:28.612Z,34.69
2023-05-18T19:05:31.338Z,35.21
2023-05-18T19:10:34.186Z,35.81
2023-05-18T19:15:36.322Z,36.27
2023-05-18T19:20:37.776Z,36.98
2023-05-18T19:25:39.220Z,37.28
2023-05-18T19:30:40.657Z,37.58
2023-05-18T19:35:42.082Z,37.81
2023-05-18T19:40:43.524Z,38.44
2023-05-18T19:45:44.997Z,38.73
2023-05-18T19:50:46.481Z,39.11
2023-05-18T19:55:48.850Z,39.34
2023-05-18T20:00:52.703Z,39.42
2023-05-18T20:05:56.008Z,39.71
2023-05-18T20:10:58.601Z,39.98
2023-05-18T20:16:02.751Z,40.04
2023-05-18T20:21:04.262Z,40.11
2023-05-18T20:26:06.665Z,40.36
2023-05-18T20:31:08.085Z,40.48
2023-05-18T20:36:10.451Z,40.54
2023-05-18T20:41:11.958Z,40.61
2023-05-18T20:46:16.085Z,40.99
2023-05-18T20:51:19.262Z,41.27
2023-05-18T20:56:22.773Z,41.23
2023-05-18T21:01:28.853Z,41.61
2023-05-18T21:06:30.867Z,41.73
2023-05-18T21:11:32.822Z,41.69
2023-05-18T21:16:34.440Z,41.84
2023-05-18T21:21:35.945Z,42.32
2023-05-18T21:26:37.385Z,42.69
2023-05-18T21:31:38.923Z,42.65
2023-05-18T21:36:41.538Z,42.82
2023-05-18T21:41:44.341Z,42.61
2023-05-18T21:46:45.895Z,42.73
2023-05-18T21:51:47.422Z,42.93
2023-05-18T21:56:48.826Z,43.05
2023-05-18T22:01:50.627Z,43.11
2023-05-18T22:06:55.222Z,43.41
2023-05-18T22:11:57.456Z,43.61
2023-05-18T22:16:59.018Z,43.90
2023-05-18T22:22:01.387Z,43.89
2023-05-18T22:27:04.027Z,44.49
2023-05-18T22:32:06.135Z,44.73
2023-05-18T22:37:07.654Z,44.76
2023-05-18T22:42:09.092Z,44.97
2023-05-18T22:47:11.277Z,44.87
2023-05-18T22:52:12.730Z,45.58
2023-05-18T22:57:14.095Z,45.80
2023-05-18T23:02:15.552Z,46.25
2023-05-18T23:07:17.249Z,46.19
2023-05-18T23:12:18.759Z,46.85
2023-05-18T23:17:22.943Z,47.05
2023-05-18T23:22:25.500Z,47.31
2023-05-18T23:27:26.959Z,47.12
2023-05-18T23:32:28.896Z,47.43
2023-05-18T23:37:34.960Z,48.16
2023-05-18T23:42:36.776Z,47.68
2023-05-18T23:47:38.500Z,48.38
2023-05-18T23:52:41.584Z,48.08
2023-05-18T23:57:43.375Z,48.53
